Time;durP1;ratioP1;P1;durP2;ratioP2;P2;SDS_P1;SDS_P2;PMS_P1;PMS_P2;Temp;Humidity;BMP_temperature;BMP_pressure;BME280_temperature;BME280_humidity;BME280_pressure;Samples;Min_cycle;Max_cycle;Signal;HPM_P1;HPM_P2
2022/01/08 00:01:09;;;;;;;4.00;2.87;;;;;;;4.77;100.00;94533.59;4970519;28;20582;-61
2022/01/08 00:03:34;;;;;;;3.83;2.77;;;;;;;4.68;100.00;94521.63;4970777;28;20180;-62
2022/01/08 00:06:00;;;;;;;3.60;2.83;;;;;;;4.70;100.00;94529.88;4970419;28;20238;-62
2022/01/08 00:08:25;;;;;;;3.47;2.70;;;;;;;4.74;100.00;94530.47;4970462;28;20183;-63
2022/01/08 00:10:53;;;;;;;4.17;3.37;;;;;;;4.62;100.00;94522.00;4972027;28;20209;-63
2022/01/08 00:13:18;;;;;;;3.23;2.77;;;;;;;4.68;100.00;94529.16;4970279;28;20284;-62
2022/01/08 00:15:44;;;;;;;3.33;2.63;;;;;;;4.61;100.00;94520.38;4970315;28;20200;-62
2022/01/08 00:18:09;;;;;;;4.50;2.90;;;;;;;4.66;100.00;94515.06;4971519;28;20212;-62
2022/01/08 00:20:35;;;;;;;2.77;2.50;;;;;;;4.65;100.00;94526.03;4971422;28;20311;-61
2022/01/08 00:23:01;;;;;;;2.83;2.50;;;;;;;4.64;100.00;94524.41;4971508;28;20242;-60
2022/01/08 00:25:26;;;;;;;3.13;2.83;;;;;;;4.59;100.00;94531.44;4970128;28;20627;-62
2022/01/08 00:27:52;;;;;;;2.90;2.40;;;;;;;4.62;100.00;94516.97;4971392;28;20654;-59
2022/01/08 00:30:17;;;;;;;3.20;2.40;;;;;;;4.54;100.00;94509.09;4970157;28;20326;-61
2022/01/08 00:32:43;;;;;;;3.30;2.53;;;;;;;4.64;100.00;94520.19;4971417;28;20650;-59
2022/01/08 00:35:09;;;;;;;3.13;2.53;;;;;;;4.80;100.00;94523.34;4970206;28;20219;-61
2022/01/08 00:37:37;;;;;;;2.87;2.17;;;;;;;4.62;100.00;94511.13;4971469;28;20222;-62
2022/01/08 00:40:07;;;;;;;3.13;2.60;;;;;;;4.72;100.00;94512.97;4970265;28;20215;-61
2022/01/08 00:42:34;;;;;;;3.83;2.60;;;;;;;4.69;100.00;94508.13;4969821;28;20672;-62
2022/01/08 00:45:00;;;;;;;3.33;2.67;;;;;;;4.78;100.00;94512.56;4970175;28;20212;-62
2022/01/08 00:47:25;;;;;;;3.33;2.30;;;;;;;4.83;100.00;94508.03;4970313;28;20292;-62
2022/01/08 00:49:51;;;;;;;2.80;2.17;;;;;;;4.74;100.00;94506.13;4971275;28;20205;-61
2022/01/08 00:52:16;;;;;;;3.43;2.60;;;;;;;4.78;100.00;94509.25;4971414;28;20280;-61
2022/01/08 00:54:42;;;;;;;2.87;2.30;;;;;;;4.79;100.00;94516.69;4969626;28;20310;-62
2022/01/08 00:57:07;;;;;;;3.07;2.03;;;;;;;4.80;100.00;94525.88;4971142;28;20191;-61
2022/01/08 00:59:34;;;;;;;2.53;1.80;;;;;;;4.88;100.00;94518.63;4971092;28;20216;-61
2022/01/08 01:02:00;;;;;;;3.20;2.13;;;;;;;4.91;100.00;94520.13;4970863;28;20181;-62
2022/01/08 01:04:26;;;;;;;2.37;2.03;;;;;;;4.80;100.00;94503.22;4970805;28;20633;-62
2022/01/08 01:06:52;;;;;;;3.17;2.57;;;;;;;4.75;100.00;94500.16;4970686;28;20235;-59
2022/01/08 01:09:18;;;;;;;4.20;1.67;;;;;;;4.79;100.00;94499.06;4970852;28;20259;-61
2022/01/08 01:11:43;;;;;;;2.13;1.50;;;;;;;4.72;100.00;94492.81;4970756;28;20207;-60
2022/01/08 01:14:09;;;;;;;2.33;1.80;;;;;;;4.76;100.00;94489.19;4970817;28;20265;-62
2022/01/08 01:16:34;;;;;;;2.97;2.20;;;;;;;4.88;100.00;94488.41;4970598;28;20205;-62
2022/01/08 01:19:02;;;;;;;3.20;1.90;;;;;;;4.74;100.00;94485.16;4970684;28;20196;-62
2022/01/08 01:21:28;;;;;;;1.83;1.70;;;;;;;4.70;100.00;94482.03;4970875;28;20689;-60
2022/01/08 01:23:54;;;;;;;2.40;1.90;;;;;;;4.71;100.00;94487.88;4970623;28;20191;-59
2022/01/08 01:26:24;;;;;;;2.60;2.17;;;;;;;4.71;100.00;94476.09;4969143;28;20286;-60
2022/01/08 01:47:58;;;;;;;3.47;1.90;;;;;;;4.68;100.00;94455.34;4970251;28;20560;-62
2022/01/08 01:50:23;;;;;;;2.10;1.80;;;;;;;4.57;100.00;94463.59;4970650;28;20567;-61
2022/01/08 01:52:49;;;;;;;2.93;2.13;;;;;;;4.64;100.00;94456.47;4970163;28;20718;-61
2022/01/08 01:55:14;;;;;;;2.57;1.90;;;;;;;4.52;100.00;94454.75;4970694;28;20720;-62
2022/01/08 01:57:40;;;;;;;2.83;1.80;;;;;;;4.59;100.00;94454.22;4969954;28;20265;-58
2022/01/08 02:00:07;;;;;;;2.77;2.10;;;;;;;4.63;100.00;94445.56;4970522;28;20211;-61
2022/01/08 02:02:33;;;;;;;2.13;1.83;;;;;;;4.64;100.00;94447.19;4970113;28;20180;-61
2022/01/08 02:04:59;;;;;;;2.13;1.77;;;;;;;4.65;100.00;94443.78;4970010;28;20201;-62
2022/01/08 02:07:27;;;;;;;2.50;2.00;;;;;;;4.61;100.00;94446.56;4970015;28;20740;-59
2022/01/08 02:09:54;;;;;;;2.70;2.07;;;;;;;4.51;100.00;94438.00;4970281;28;20216;-60
2022/01/08 02:12:22;;;;;;;2.33;1.80;;;;;;;4.60;100.00;94448.31;4969926;28;20310;-59
2022/01/08 02:14:48;;;;;;;5.00;2.10;;;;;;;4.50;100.00;94442.25;4970300;28;20327;-62
2022/01/08 02:17:14;;;;;;;3.00;2.07;;;;;;;4.48;100.00;94433.19;4969878;28;20177;-61
2022/01/08 02:19:40;;;;;;;2.80;1.70;;;;;;;4.40;100.00;94436.22;4969844;28;20208;-61
2022/01/08 02:22:10;;;;;;;3.67;2.03;;;;;;;4.41;100.00;94424.41;4968441;28;20192;-62
2022/01/08 02:24:37;;;;;;;4.53;2.23;;;;;;;4.38;100.00;94425.44;4968672;28;20232;-60
2022/01/08 02:27:02;;;;;;;2.30;1.83;;;;;;;4.46;100.00;94418.19;4968370;28;20656;-62
2022/01/08 02:29:28;;;;;;;2.37;1.80;;;;;;;4.32;100.00;94393.13;4969891;28;20711;-61
2022/01/08 02:32:00;;;;;;;2.40;2.07;;;;;;;4.46;100.00;94410.66;4969691;28;20673;-62
2022/01/08 02:34:27;;;;;;;2.40;1.83;;;;;;;4.41;100.00;94406.78;4969787;28;20183;-61
2022/01/08 02:36:57;;;;;;;3.33;2.00;;;;;;;4.37;100.00;94400.34;4969691;28;20643;-61
2022/01/08 02:39:23;;;;;;;3.00;2.50;;;;;;;4.40;100.00;94397.66;4969714;28;20279;-62
2022/01/08 02:41:53;;;;;;;3.67;2.30;;;;;;;4.34;100.00;94396.34;4968683;28;20185;-59
2022/01/08 02:44:19;;;;;;;2.80;2.20;;;;;;;4.39;100.00;94391.81;4969702;28;20220;-62
2022/01/08 02:46:45;;;;;;;2.00;1.80;;;;;;;4.47;100.00;94394.63;4969391;28;20247;-61
2022/01/08 02:49:10;;;;;;;3.47;2.00;;;;;;;4.35;100.00;94377.00;4969625;28;20207;-62
2022/01/08 02:51:36;;;;;;;2.30;2.10;;;;;;;4.43;100.00;94380.63;4969835;28;20213;-62
2022/01/08 02:54:06;;;;;;;2.93;2.10;;;;;;;4.50;100.00;94379.34;4969730;28;20557;-62
2022/01/08 02:56:32;;;;;;;2.30;1.63;;;;;;;4.51;100.00;94375.91;4969331;28;20205;-59
2022/01/08 02:58:57;;;;;;;3.57;2.33;;;;;;;4.60;100.00;94372.81;4968113;28;20195;-58
2022/01/08 03:01:23;;;;;;;2.33;1.90;;;;;;;4.61;100.00;94379.44;4969191;28;20209;-59
2022/01/08 03:03:49;;;;;;;2.50;2.17;;;;;;;4.72;100.00;94377.03;4969350;28;20598;-60
2022/01/08 03:06:15;;;;;;;2.93;2.27;;;;;;;4.81;100.00;94385.66;4969243;28;20238;-61
2022/01/08 03:08:40;;;;;;;2.90;2.00;;;;;;;4.65;100.00;94380.03;4967993;28;20223;-59
2022/01/08 03:11:06;;;;;;;2.83;1.90;;;;;;;4.72;100.00;94379.53;4971459;28;20203;-62
2022/01/08 03:13:31;;;;;;;3.77;1.93;;;;;;;4.69;100.00;94372.19;4972638;28;20181;-61
2022/01/08 03:15:57;;;;;;;2.57;1.97;;;;;;;4.66;100.00;94379.94;4972516;28;20606;-59
2022/01/08 03:18:22;;;;;;;2.23;1.93;;;;;;;4.73;100.00;94375.28;4972665;28;20181;-61
2022/01/08 03:21:00;;;;;;;3.47;2.27;;;;;;;4.76;100.00;94378.44;4973139;28;20232;-60
2022/01/08 03:23:36;;;;;;;3.03;2.23;;;;;;;4.77;100.00;94380.03;4972613;28;20171;-59
2022/01/08 03:26:01;;;;;;;2.60;2.10;;;;;;;4.76;100.00;94375.91;4972406;28;20247;-61
2022/01/08 03:28:27;;;;;;;3.50;2.57;;;;;;;4.71;100.00;94377.91;4972472;28;20223;-62
2022/01/08 03:30:52;;;;;;;2.50;1.87;;;;;;;4.62;100.00;94386.09;4971192;28;20223;-61
2022/01/08 03:33:18;;;;;;;3.20;2.60;;;;;;;4.65;100.00;94372.47;4972237;28;20184;-62
2022/01/08 03:35:43;;;;;;;2.77;2.03;;;;;;;4.56;100.00;94376.44;4972675;28;20204;-62
2022/01/08 03:38:08;;;;;;;3.63;2.23;;;;;;;4.56;100.00;94373.91;4972336;28;20569;-59
2022/01/08 03:40:34;;;;;;;2.60;2.20;;;;;;;4.62;100.00;94382.75;4972048;28;20209;-61
2022/01/08 03:43:00;;;;;;;3.77;2.37;;;;;;;4.60;100.00;94380.34;4972337;28;20212;-61
2022/01/08 03:45:25;;;;;;;2.27;2.07;;;;;;;4.42;100.00;94373.19;4972572;28;20250;-62
2022/01/08 03:50:17;;;;;;;2.93;2.40;;;;;;;4.67;100.00;94373.19;4972588;28;20220;-61
2022/01/08 03:52:44;;;;;;;3.07;2.03;;;;;;;4.76;100.00;94368.34;4971900;28;20190;-59
2022/01/08 03:55:10;;;;;;;2.10;1.87;;;;;;;4.72;100.00;94366.13;4970879;28;20214;-60
2022/01/08 03:57:35;;;;;;;3.83;1.90;;;;;;;4.69;100.00;94351.22;4972326;28;20598;-62
2022/01/08 04:00:02;;;;;;;7.37;2.00;;;;;;;4.81;100.00;94361.28;4972330;28;20754;-62
2022/01/08 04:02:27;;;;;;;2.10;1.90;;;;;;;4.77;100.00;94359.06;4970785;28;20187;-62
2022/01/08 04:04:53;;;;;;;2.20;1.70;;;;;;;4.78;100.00;94350.63;4970775;28;20208;-58
2022/01/08 04:07:18;;;;;;;3.40;2.03;;;;;;;4.82;100.00;94347.00;4971861;28;20209;-61
2022/01/08 04:09:45;;;;;;;3.50;2.30;;;;;;;4.84;100.00;94345.19;4971808;28;20570;-61
2022/01/08 04:12:15;;;;;;;2.07;1.87;;;;;;;4.84;100.00;94346.00;4971725;28;20178;-58
2022/01/08 04:15:01;;;;;;;3.63;2.20;;;;;;;4.82;100.00;94342.78;4972198;28;20205;-62
2022/01/08 04:17:27;;;;;;;2.50;2.30;;;;;;;4.82;100.00;94344.47;4970242;28;20190;-61
2022/01/08 04:19:52;;;;;;;4.03;2.00;;;;;;;4.81;100.00;94343.66;4971955;28;20608;-62
2022/01/08 04:22:18;;;;;;;3.07;1.90;;;;;;;4.73;100.00;94330.78;4970647;28;20192;-61
2022/01/08 04:24:43;;;;;;;2.00;1.80;;;;;;;4.62;100.00;94329.91;4971706;28;20253;-61
2022/01/08 04:27:09;;;;;;;2.77;1.87;;;;;;;4.66;100.00;94339.66;4971577;28;20291;-59
2022/01/08 04:29:34;;;;;;;2.13;1.93;;;;;;;4.64;100.00;94338.97;4970184;28;20222;-62
2022/01/08 04:32:00;;;;;;;2.53;2.03;;;;;;;4.58;100.00;94334.34;4971971;28;20180;-61
2022/01/08 04:34:27;;;;;;;1.40;1.27;;;;;;;4.56;100.00;94336.16;4970315;28;20194;-61
2022/01/08 04:36:52;;;;;;;3.33;2.40;;;;;;;4.67;100.00;94342.97;4971566;28;20672;-58
2022/01/08 04:39:18;;;;;;;1.93;1.70;;;;;;;4.72;100.00;94346.00;4971352;28;20184;-60
2022/01/08 04:41:44;;;;;;;2.60;1.80;;;;;;;4.70;100.00;94340.25;4971595;28;20215;-61
2022/01/08 04:44:10;;;;;;;2.63;1.50;;;;;;;4.67;100.00;94340.44;4971394;28;20177;-61
2022/01/08 04:46:38;;;;;;;2.43;1.93;;;;;;;4.67;100.00;94333.72;4970076;28;20689;-61
2022/01/08 04:49:04;;;;;;;2.27;1.70;;;;;;;4.68;100.00;94337.03;4969864;28;20184;-62
2022/01/08 04:51:30;;;;;;;2.10;1.50;;;;;;;4.80;100.00;94351.31;4971269;28;20266;-61
2022/01/08 04:53:55;;;;;;;2.23;1.63;;;;;;;4.79;100.00;94342.97;4971500;28;20191;-62
2022/01/08 04:56:20;;;;;;;1.50;1.40;;;;;;;4.77;100.00;94344.78;4970931;28;20600;-63
2022/01/08 04:58:46;;;;;;;2.70;1.50;;;;;;;4.81;100.00;94336.09;4971039;28;20651;-63
2022/01/08 05:01:13;;;;;;;1.47;1.30;;;;;;;4.80;100.00;94339.56;4969729;28;20204;-63
2022/01/08 05:03:39;;;;;;;1.73;1.57;;;;;;;4.86;100.00;94338.31;4970854;28;20242;-60
2022/01/08 05:06:04;;;;;;;1.50;1.20;;;;;;;4.90;100.00;94344.75;4970989;28;20200;-58
2022/01/08 05:08:30;;;;;;;2.13;1.30;;;;;;;4.92;100.00;94336.19;4970638;28;20183;-62
2022/01/08 05:10:55;;;;;;;2.30;1.57;;;;;;;4.93;100.00;94344.53;4970697;28;20238;-61
2022/01/08 05:13:21;;;;;;;1.57;1.23;;;;;;;4.85;100.00;94335.00;4970875;28;20616;-59
2022/01/08 05:15:46;;;;;;;2.53;1.60;;;;;;;4.92;100.00;94342.94;4971173;28;20208;-61
2022/01/08 05:18:18;;;;;;;2.33;1.50;;;;;;;4.88;100.00;94339.03;4970676;28;20217;-61
2022/01/08 05:20:53;;;;;;;2.93;1.60;;;;;;;4.78;100.00;94333.81;4971274;28;20678;-61
2022/01/08 05:23:18;;;;;;;2.07;1.40;;;;;;;4.82;100.00;94344.47;4969509;28;20189;-62
2022/01/08 05:25:44;;;;;;;2.73;1.77;;;;;;;4.82;100.00;94335.22;4969269;28;20204;-60
2022/01/08 05:28:09;;;;;;;1.80;1.60;;;;;;;4.92;100.00;94327.84;4970653;28;20190;-61
2022/01/08 05:30:34;;;;;;;2.13;1.50;;;;;;;5.07;100.00;94332.63;4971832;28;20568;-62
2022/01/08 05:33:00;;;;;;;1.80;1.37;;;;;;;5.32;100.00;94346.03;4971438;28;20585;-62
2022/01/08 05:35:27;;;;;;;1.70;1.23;;;;;;;5.55;100.00;94347.78;4971572;28;20284;-60
2022/01/08 05:37:53;;;;;;;1.73;1.30;;;;;;;5.73;100.00;94356.56;4970591;28;20287;-59
2022/01/08 05:40:19;;;;;;;1.30;1.17;;;;;;;5.85;100.00;94355.72;4971931;28;20214;-62
2022/01/08 05:43:04;;;;;;;2.03;1.17;;;;;;;5.98;100.00;94360.72;4970251;28;20247;-58
2022/01/08 05:45:29;;;;;;;1.53;1.27;;;;;;;6.04;100.00;94350.97;4970376;28;20226;-62
2022/01/08 05:47:55;;;;;;;2.80;1.70;;;;;;;6.02;100.00;94344.44;4970958;28;20208;-59
2022/01/08 05:50:20;;;;;;;3.17;1.50;;;;;;;6.12;100.00;94348.69;4971159;28;20289;-61
2022/01/08 05:52:48;;;;;;;1.90;1.53;;;;;;;6.18;100.00;94353.28;4969828;28;20201;-63
2022/01/08 05:55:20;;;;;;;2.23;1.80;;;;;;;6.07;100.00;94348.25;4970847;28;20206;-60
2022/01/08 05:57:46;;;;;;;3.87;1.93;;;;;;;6.05;100.00;94354.31;4968988;28;20290;-62
2022/01/08 06:00:11;;;;;;;2.53;1.63;;;;;;;6.05;100.00;94346.72;4970645;28;20202;-58
2022/01/08 06:02:37;;;;;;;3.17;2.00;;;;;;;6.01;100.00;94348.69;4970600;28;20183;-61
2022/01/08 06:05:04;;;;;;;3.23;2.50;;;;;;;5.77;100.00;94333.56;4970451;28;20202;-61
2022/01/08 06:07:30;;;;;;;6.03;3.00;;;;;;;5.74;100.00;94333.75;4969485;28;20221;-60
2022/01/08 06:09:55;;;;;;;6.67;3.77;;;;;;;5.54;100.00;94320.94;4971558;28;20727;-59
2022/01/08 06:12:21;;;;;;;5.63;2.70;;;;;;;5.34;100.00;94316.50;4971462;28;20194;-61
2022/01/08 06:14:46;;;;;;;4.03;2.00;;;;;;;5.40;100.00;94318.59;4971282;28;20275;-60
2022/01/08 06:17:12;;;;;;;2.27;1.63;;;;;;;5.36;100.00;94318.00;4971366;28;20196;-63
2022/01/08 06:19:37;;;;;;;1.80;1.40;;;;;;;5.32;100.00;94329.22;4969413;28;20205;-60
2022/01/08 06:22:03;;;;;;;2.50;1.40;;;;;;;5.32;100.00;94315.81;4968961;28;20662;-61
2022/01/08 06:24:29;;;;;;;2.20;1.87;;;;;;;5.33;100.00;94320.75;4952702;28;20270;-62
2022/01/08 06:26:55;;;;;;;1.77;1.50;;;;;;;5.25;100.00;94319.69;4969848;28;20215;-63
2022/01/08 06:29:21;;;;;;;3.27;1.57;;;;;;;5.14;100.00;94317.91;4970238;28;20289;-63
2022/01/08 06:31:46;;;;;;;1.50;1.40;;;;;;;5.18;100.00;94323.53;4969856;28;20184;-61
2022/01/08 06:34:12;;;;;;;1.17;0.97;;;;;;;5.11;100.00;94313.88;4969827;28;20184;-62
2022/01/08 06:36:37;;;;;;;1.43;1.20;;;;;;;5.16;100.00;94316.06;4970142;28;20190;-61
2022/01/08 06:39:03;;;;;;;2.27;1.40;;;;;;;5.15;100.00;94316.19;4970044;28;20183;-63
2022/01/08 06:41:29;;;;;;;2.57;1.60;;;;;;;5.20;100.00;94311.63;4968790;28;20205;-61
2022/01/08 06:43:56;;;;;;;3.90;1.50;;;;;;;5.09;100.00;94315.69;4969718;28;20177;-61
2022/01/08 06:46:23;;;;;;;1.97;1.60;;;;;;;5.04;100.00;94311.88;4972766;28;20289;-61
2022/01/08 06:48:48;;;;;;;1.90;1.40;;;;;;;5.24;100.00;94316.34;4972982;28;20189;-63
2022/01/08 06:51:13;;;;;;;2.60;1.37;;;;;;;5.18;100.00;94313.44;4972882;28;20201;-62
2022/01/08 06:53:39;;;;;;;1.83;1.30;;;;;;;5.28;100.00;94312.72;4971714;28;20192;-62
2022/01/08 06:56:05;;;;;;;1.10;0.93;;;;;;;5.29;100.00;94319.38;4973213;28;20593;-62
2022/01/08 06:58:30;;;;;;;1.40;1.10;;;;;;;5.18;100.00;94309.22;4972885;28;20191;-61
2022/01/08 07:00:56;;;;;;;1.47;1.37;;;;;;;5.18;100.00;94303.38;4972900;28;20204;-62
2022/01/08 07:03:21;;;;;;;1.27;1.00;;;;;;;5.11;100.00;94308.03;4973046;28;20192;-62
2022/01/08 07:05:47;;;;;;;3.23;2.30;;;;;;;5.23;100.00;94316.47;4973186;28;20216;-62
2022/01/08 07:08:14;;;;;;;4.37;1.90;;;;;;;5.24;100.00;94305.47;4972590;28;20193;-62
2022/01/08 07:10:39;;;;;;;3.00;1.70;;;;;;;5.32;100.00;94308.25;4972897;28;20262;-61
2022/01/08 07:13:05;;;;;;;5.00;1.93;;;;;;;5.30;100.00;94312.59;4972613;28;20217;-62
2022/01/08 07:15:31;;;;;;;2.43;1.70;;;;;;;5.31;100.00;94307.47;4972900;28;20201;-59
2022/01/08 07:17:56;;;;;;;1.80;1.53;;;;;;;5.21;100.00;94310.72;4972540;28;20187;-63
2022/01/08 07:20:22;;;;;;;1.90;1.63;;;;;;;5.28;100.00;94311.88;4973078;28;20206;-60
2022/01/08 07:22:48;;;;;;;5.67;1.80;;;;;;;5.33;100.00;94305.66;4955266;28;20189;-62
2022/01/08 07:25:15;;;;;;;1.73;1.20;;;;;;;5.30;100.00;94307.56;4972787;28;20236;-62
2022/01/08 07:27:40;;;;;;;2.03;1.60;;;;;;;5.29;100.00;94309.28;4972321;28;20221;-63
2022/01/08 07:30:08;;;;;;;2.27;1.40;;;;;;;5.31;100.00;94304.94;4972709;28;20209;-62
2022/01/08 07:32:46;;;;;;;1.60;1.40;;;;;;;5.32;100.00;94306.53;4970899;28;20212;-62
2022/01/08 07:35:14;;;;;;;1.53;1.40;;;;;;;5.41;100.00;94315.19;4972419;28;20205;-62
2022/01/08 07:37:41;;;;;;;2.50;1.70;;;;;;;5.37;100.00;94307.03;4972433;28;20247;-63
2022/01/08 07:40:07;;;;;;;1.60;1.50;;;;;;;5.40;100.00;94303.47;4972667;28;20204;-62
2022/01/08 07:42:33;;;;;;;2.30;1.80;;;;;;;5.41;100.00;94305.09;4972099;28;20547;-62
2022/01/08 07:44:59;;;;;;;2.07;1.50;;;;;;;5.51;100.00;94311.91;4972443;28;20210;-60
2022/01/08 07:47:24;;;;;;;3.10;1.60;;;;;;;5.50;100.00;94312.81;4972038;28;20219;-62
2022/01/08 07:49:50;;;;;;;4.97;2.83;;;;;;;6.16;100.00;94297.09;4972404;28;20355;-63
2022/01/08 07:52:16;;;;;;;3.83;2.03;;;;;;;5.97;100.00;94331.34;4972008;28;20220;-62
2022/01/08 07:54:42;;;;;;;1.90;1.30;;;;;;;5.89;100.00;94332.72;4972227;28;20202;-62
2022/01/08 07:57:07;;;;;;;2.27;1.47;;;;;;;5.78;100.00;94319.22;4971850;28;20188;-60
2022/01/08 07:59:34;;;;;;;3.37;1.63;;;;;;;5.71;100.00;94311.31;4972206;28;20209;-64
2022/01/08 08:01:59;;;;;;;4.07;2.10;;;;;;;5.70;100.00;94301.31;4971903;28;20188;-63
2022/01/08 08:04:25;;;;;;;3.73;1.77;;;;;;;5.81;100.00;94313.97;4971894;28;20226;-62
2022/01/08 08:06:50;;;;;;;2.67;1.93;;;;;;;5.80;100.00;94315.69;4971658;28;20226;-60
2022/01/08 08:09:16;;;;;;;2.77;1.60;;;;;;;5.87;100.00;94306.81;4971828;28;20744;-62
2022/01/08 08:11:42;;;;;;;3.00;1.80;;;;;;;5.89;100.00;94309.19;4971780;28;20234;-61
2022/01/08 08:14:08;;;;;;;2.90;1.87;;;;;;;5.87;100.00;94305.97;4971705;28;20239;-59
2022/01/08 08:16:34;;;;;;;1.77;0.90;;;;;;;5.82;100.00;94311.31;4971733;28;20501;-60
2022/01/08 08:19:00;;;;;;;4.83;1.30;;;;;;;5.76;100.00;94305.91;4971719;28;20274;-60
2022/01/08 08:21:25;;;;;;;2.43;1.70;;;;;;;5.84;100.00;94298.63;4971572;28;20297;-61
2022/01/08 08:23:51;;;;;;;3.47;1.67;;;;;;;5.80;100.00;94292.97;4971470;28;20186;-60
2022/01/08 08:26:16;;;;;;;3.70;1.57;;;;;;;5.86;100.00;94297.59;4971409;28;20219;-62
2022/01/08 08:28:42;;;;;;;3.60;1.20;;;;;;;5.92;100.00;94298.88;4971340;28;20548;-62
2022/01/08 08:31:09;;;;;;;1.17;0.80;;;;;;;5.90;100.00;94293.13;4971331;28;20214;-62
2022/01/08 08:33:35;;;;;;;1.30;0.80;;;;;;;5.88;100.00;94284.88;4971345;28;20223;-62
2022/01/08 08:36:01;;;;;;;4.40;0.93;;;;;;;6.02;100.00;94291.47;4969986;28;20246;-62
2022/01/08 08:38:27;;;;;;;1.17;0.70;;;;;;;6.03;100.00;94290.53;4971444;28;20274;-60
2022/01/08 08:40:53;;;;;;;3.37;1.07;;;;;;;6.08;100.00;94291.03;4971300;28;20301;-63
2022/01/08 08:43:21;;;;;;;1.80;0.93;;;;;;;5.97;100.00;94276.66;4971238;28;20670;-60
2022/01/08 08:45:47;;;;;;;1.20;1.10;;;;;;;5.95;100.00;94275.97;4971693;28;20759;-60
2022/01/08 08:48:12;;;;;;;3.03;1.60;;;;;;;5.86;100.00;94271.56;4971234;28;20186;-64
2022/01/08 08:50:38;;;;;;;1.87;1.33;;;;;;;5.93;100.00;94273.56;4971605;28;20224;-60
2022/01/08 08:53:03;;;;;;;2.03;1.30;;;;;;;6.03;100.00;94278.72;4971196;28;20589;-60
2022/01/08 08:55:29;;;;;;;3.60;1.60;;;;;;;6.13;100.00;94288.94;4954043;28;20215;-62
2022/01/08 08:57:54;;;;;;;1.60;1.30;;;;;;;6.10;100.00;94291.72;4971065;28;20206;-63
2022/01/08 09:00:20;;;;;;;2.00;1.23;;;;;;;6.06;100.00;94280.25;4971414;28;20687;-59
2022/01/08 09:02:45;;;;;;;1.87;1.53;;;;;;;6.12;100.00;94277.25;4970746;28;20572;-62
2022/01/08 09:05:11;;;;;;;2.63;1.43;;;;;;;6.16;100.00;94283.69;4971061;28;20661;-62
2022/01/08 09:07:38;;;;;;;2.30;1.57;;;;;;;6.23;100.00;94280.59;4970056;28;20272;-63
2022/01/08 09:10:05;;;;;;;4.43;2.00;;;;;;;6.20;100.00;94267.41;4971073;28;20204;-61
2022/01/08 09:12:31;;;;;;;6.90;1.50;;;;;;;6.19;100.00;94263.25;4970623;28;20191;-62
2022/01/08 09:14:57;;;;;;;2.10;1.33;;;;;;;6.19;100.00;94259.03;4970969;28;20211;-62
2022/01/08 09:17:24;;;;;;;2.67;1.57;;;;;;;6.16;100.00;94255.94;4970718;28;20191;-63
2022/01/08 09:19:50;;;;;;;2.40;1.67;;;;;;;6.23;100.00;94260.41;4971002;28;20235;-64
2022/01/08 09:22:16;;;;;;;3.07;1.70;;;;;;;6.25;100.00;94268.66;4970713;28;20214;-62
2022/01/08 09:24:44;;;;;;;4.40;1.67;;;;;;;6.26;100.00;94256.88;4970764;28;20198;-59
2022/01/08 09:27:09;;;;;;;3.93;2.00;;;;;;;6.30;100.00;94266.59;4970419;28;20209;-59
2022/01/08 09:29:35;;;;;;;3.33;1.10;;;;;;;6.30;100.00;94259.03;4970845;28;20202;-60
2022/01/08 09:32:01;;;;;;;2.00;1.47;;;;;;;6.24;100.00;94253.66;4970997;28;20186;-65
2022/01/08 09:34:27;;;;;;;2.33;1.70;;;;;;;6.24;100.00;94230.94;4970669;28;20176;-62
2022/01/08 09:36:52;;;;;;;1.80;1.50;;;;;;;6.30;100.00;94243.09;4970558;28;20187;-63
2022/01/08 09:39:18;;;;;;;1.53;1.17;;;;;;;6.19;100.00;94238.03;4969187;28;20188;-59
2022/01/08 09:41:44;;;;;;;2.60;1.50;;;;;;;6.26;100.00;94239.19;4970568;28;20236;-60
2022/01/08 09:44:11;;;;;;;5.70;1.67;;;;;;;6.33;100.00;94231.03;4969134;28;20187;-60
2022/01/08 09:46:36;;;;;;;2.73;1.87;;;;;;;6.32;100.00;94233.69;4970676;28;20748;-62
2022/01/08 09:49:02;;;;;;;2.50;1.47;;;;;;;6.35;100.00;94221.63;4968959;28;20282;-65
2022/01/08 09:51:28;;;;;;;2.60;1.30;;;;;;;6.40;100.00;94223.81;4969010;28;20219;-60
2022/01/08 09:53:54;;;;;;;3.57;1.80;;;;;;;6.36;100.00;94220.69;4970230;28;20636;-61
2022/01/08 09:56:25;;;;;;;3.60;1.37;;;;;;;6.35;100.00;94221.63;4970164;28;20200;-63
2022/01/08 09:58:51;;;;;;;2.27;1.93;;;;;;;6.24;100.00;94203.97;4969018;28;20259;-63
2022/01/08 10:01:34;;;;;;;1.67;1.40;;;;;;;6.27;100.00;94198.69;4970132;28;20211;-61
2022/01/08 10:04:01;;;;;;;2.67;1.30;;;;;;;6.22;100.00;94193.19;4968789;28;20198;-63
2022/01/08 10:06:29;;;;;;;1.53;1.20;;;;;;;6.29;100.00;94196.03;4969829;28;20214;-61
2022/01/08 10:08:56;;;;;;;1.87;1.30;;;;;;;6.33;100.00;94197.41;4968868;28;20191;-62
2022/01/08 10:11:22;;;;;;;3.73;1.60;;;;;;;6.40;100.00;94184.22;4969858;28;20691;-63
2022/01/08 10:13:58;;;;;;;1.37;1.23;;;;;;;6.42;100.00;94197.53;4970004;28;20280;-62
2022/01/08 10:19:23;;;;;;;1.40;1.10;;;;;;;6.47;100.00;94180.31;4970095;28;20236;-63
2022/01/08 10:21:50;;;;;;;3.00;1.30;;;;;;;6.54;100.00;94194.09;4973026;28;20194;-62
2022/01/08 10:24:34;;;;;;;3.40;1.63;;;;;;;6.58;100.00;94170.22;4956051;28;20551;-62
2022/01/08 10:27:06;;;;;;;3.67;2.23;;;;;;;6.47;100.00;94177.78;4971665;28;20218;-62
2022/01/08 10:29:33;;;;;;;3.27;1.80;;;;;;;6.55;100.00;94185.59;4973400;28;20260;-63
2022/01/08 10:31:59;;;;;;;3.87;2.70;;;;;;;6.58;100.00;94182.84;4971828;28;20188;-62
2022/01/08 10:34:27;;;;;;;3.57;2.20;;;;;;;6.59;100.00;94186.94;4971595;28;20232;-63
2022/01/08 10:36:56;;;;;;;2.63;1.70;;;;;;;6.59;100.00;94179.38;4972975;28;20238;-63
2022/01/08 10:39:33;;;;;;;1.90;1.70;;;;;;;6.55;100.00;94175.47;4973111;28;20215;-60
2022/01/08 10:42:01;;;;;;;1.40;1.30;;;;;;;6.41;100.00;94147.97;4971599;28;20188;-64
2022/01/08 10:44:31;;;;;;;3.63;1.53;;;;;;;6.50;100.00;94156.56;4971575;28;20186;-62
2022/01/08 10:47:03;;;;;;;4.33;1.97;;;;;;;6.45;100.00;94138.44;4973022;28;20208;-62
2022/01/08 10:49:36;;;;;;;2.00;1.77;;;;;;;6.53;100.00;94146.22;4971651;28;20504;-64
2022/01/08 10:52:11;;;;;;;3.57;1.97;;;;;;;6.52;100.00;94140.38;4972963;28;20270;-63
2022/01/08 10:54:41;;;;;;;4.70;2.33;;;;;;;6.52;100.00;94134.53;4972885;28;20195;-63
2022/01/08 10:57:09;;;;;;;2.30;1.50;;;;;;;6.58;100.00;94137.38;4973457;28;20176;-61
2022/01/08 10:59:36;;;;;;;3.70;2.37;;;;;;;6.58;100.00;94137.38;4969190;28;20743;-63
2022/01/08 11:02:09;;;;;;;2.87;1.53;;;;;;;6.64;100.00;94126.00;4970512;28;20190;-63
2022/01/08 11:04:41;;;;;;;4.17;1.93;;;;;;;6.64;100.00;94121.75;4970682;28;20253;-63
2022/01/08 11:07:16;;;;;;;2.97;1.93;;;;;;;6.64;100.00;94133.56;4971630;28;20227;-63
2022/01/08 11:09:47;;;;;;;2.10;1.80;;;;;;;6.68;100.00;94138.28;4973026;28;20198;-63
2022/01/08 11:12:17;;;;;;;2.07;1.87;;;;;;;6.76;100.00;94152.81;4972585;28;20559;-63
2022/01/08 11:17:25;;;;;;;3.63;2.37;;;;;;;6.89;100.00;94140.81;4972842;28;20180;-63
2022/01/08 11:20:12;;;;;;;3.20;2.10;;;;;;;6.82;100.00;94133.84;4970951;28;20702;-63
2022/01/08 11:22:41;;;;;;;2.20;1.97;;;;;;;6.71;100.00;94120.34;4971171;28;20190;-63
2022/01/08 11:25:09;;;;;;;1.83;1.47;;;;;;;6.68;100.00;94115.56;4971059;28;20242;-63
2022/01/08 11:27:44;;;;;;;2.27;1.63;;;;;;;6.68;100.00;94124.84;4971048;28;20376;-63
2022/01/08 11:30:17;;;;;;;2.73;1.77;;;;;;;6.67;100.00;94110.59;4972647;28;20577;-63
2022/01/08 11:32:44;;;;;;;5.57;1.97;;;;;;;6.68;100.00;94107.97;4971199;28;20206;-60
2022/01/08 11:35:11;;;;;;;3.57;2.20;;;;;;;6.75;100.00;94118.38;4972216;28;20212;-63
2022/01/08 11:37:37;;;;;;;2.20;2.00;;;;;;;6.64;100.00;94106.63;4971202;28;20660;-61
2022/01/08 11:40:08;;;;;;;6.40;2.30;;;;;;;6.67;100.00;94113.94;4972301;28;20264;-63
2022/01/08 11:42:37;;;;;;;3.30;2.10;;;;;;;6.74;100.00;94116.78;4970761;28;20179;-62
2022/01/08 11:45:06;;;;;;;3.87;1.90;;;;;;;6.75;100.00;94114.13;4972145;28;20688;-62
2022/01/08 11:47:31;;;;;;;1.87;1.60;;;;;;;6.56;100.00;94096.31;4970663;28;20219;-59
2022/01/08 11:50:03;;;;;;;2.37;1.83;;;;;;;6.65;100.00;94109.91;4972466;28;20671;-63
2022/01/08 11:52:28;;;;;;;3.20;2.10;;;;;;;6.70;100.00;94102.78;4972480;28;20187;-62
2022/01/08 11:54:54;;;;;;;3.17;2.20;;;;;;;6.65;100.00;94085.47;4971245;28;20222;-59
2022/01/08 11:57:27;;;;;;;1.90;1.50;;;;;;;6.69;100.00;94083.50;4972249;28;20187;-62
2022/01/08 11:59:57;;;;;;;3.03;1.90;;;;;;;6.75;100.00;94083.81;4972150;28;20247;-63